Time;durP1;ratioP1;P1;durP2;ratioP2;P2;SDS_P1;SDS_P2;PMS_P1;PMS_P2;Temp;Humidity;BMP_temperature;BMP_pressure;BME280_temperature;BME280_humidity;BME280_pressure;Samples;Min_cycle;Max_cycle;Signal;HPM_P1;HPM_P2
2023/03/16 00:01:07;;;;;;;5.90;3.90;;;;;;;3.78;79.96;100492.94;109508;1242;59098;-77
2023/03/16 00:03:35;;;;;;;6.00;3.60;;;;;;;3.76;80.23;100485.27;109539;1241;73547;-78
2023/03/16 00:06:04;;;;;;;4.80;3.20;;;;;;;3.80;79.80;100477.13;109660;1243;57748;-78
2023/03/16 00:08:34;;;;;;;4.70;3.60;;;;;;;3.78;80.08;100476.02;109603;1241;57678;-77
2023/03/16 00:11:03;;;;;;;5.40;3.70;;;;;;;3.78;79.92;100480.50;109690;1241;73632;-77
2023/03/16 00:13:32;;;;;;;5.20;3.50;;;;;;;3.78;80.07;100483.60;109228;1248;71748;-78
2023/03/16 00:16:06;;;;;;;6.40;3.60;;;;;;;3.73;80.24;100492.49;109795;1241;70225;-77
2023/03/16 00:18:37;;;;;;;5.40;3.80;;;;;;;3.73;80.19;100502.30;109738;1244;63746;-77
2023/03/16 00:21:07;;;;;;;5.00;3.40;;;;;;;3.70;80.54;100504.31;109865;1242;57227;-74
2023/03/16 00:23:35;;;;;;;4.50;3.30;;;;;;;3.61;81.04;100501.63;109605;1240;59880;-74
2023/03/16 00:26:08;;;;;;;5.50;3.70;;;;;;;3.65;80.67;100512.30;109749;1244;63351;-76
2023/03/16 00:28:37;;;;;;;7.00;4.20;;;;;;;3.65;80.84;100511.97;109593;1245;60839;-76
2023/03/16 00:31:11;;;;;;;4.50;3.70;;;;;;;3.64;80.61;100516.81;109505;1241;59197;-76
2023/03/16 00:33:41;;;;;;;;;;;;;;;3.63;81.03;100518.92;109629;1241;73787;-75
2023/03/16 00:36:11;;;;;;;4.60;3.50;;;;;;;3.60;80.92;100526.81;109722;1242;57151;-76
2023/03/16 00:38:44;;;;;;;6.10;3.90;;;;;;;3.63;80.82;100520.48;109777;1241;60426;-77
2023/03/16 00:41:14;;;;;;;6.30;3.90;;;;;;;3.60;81.29;100521.67;109666;1241;63506;-78
2023/03/16 00:43:43;;;;;;;5.00;3.60;;;;;;;3.59;81.30;100523.23;109802;1243;62712;-77
2023/03/16 00:46:16;;;;;;;4.50;3.50;;;;;;;3.60;81.46;100525.80;109874;1242;59448;-78
2023/03/16 00:48:46;;;;;;;4.10;3.10;;;;;;;3.61;81.33;100526.41;109750;1242;63377;-76
2023/03/16 00:51:17;;;;;;;4.20;3.30;;;;;;;3.61;81.47;100531.61;109771;1244;57609;-77
2023/03/16 00:53:46;;;;;;;4.60;3.20;;;;;;;3.61;81.58;100538.52;109659;1241;57689;-75
2023/03/16 00:56:15;;;;;;;5.70;3.20;;;;;;;3.57;81.84;100525.42;109573;1241;62491;-76
2023/03/16 00:58:44;;;;;;;4.80;3.40;;;;;;;3.52;82.16;100519.98;109808;1241;70706;-75
2023/03/16 01:01:18;;;;;;;5.20;2.80;;;;;;;3.51;82.26;100524.67;109722;1244;60517;-75
2023/03/16 01:03:48;;;;;;;4.70;3.50;;;;;;;3.56;82.12;100523.75;109467;1241;72979;-77
2023/03/16 01:06:19;;;;;;;3.60;3.00;;;;;;;3.57;81.99;100527.70;109614;1245;57494;-77
2023/03/16 01:08:48;;;;;;;4.80;3.70;;;;;;;3.55;82.10;100530.52;109716;1244;57631;-76
2023/03/16 01:11:21;;;;;;;3.60;2.80;;;;;;;3.45;82.89;100534.40;109685;1244;62986;-76
2023/03/16 01:13:53;;;;;;;5.90;3.40;;;;;;;3.47;82.79;100533.46;109639;1245;61663;-76
2023/03/16 01:16:24;;;;;;;3.80;3.20;;;;;;;3.41;83.39;100539.58;109669;1241;69907;-76
2023/03/16 01:18:53;;;;;;;5.50;3.20;;;;;;;3.38;83.65;100547.45;109778;1244;62850;-75
2023/03/16 01:21:23;;;;;;;4.00;2.90;;;;;;;3.41;83.28;100551.98;109502;1245;57602;-76
2023/03/16 01:23:52;;;;;;;4.30;3.20;;;;;;;3.41;83.55;100551.63;109657;1241;57416;-75
2023/03/16 01:26:24;;;;;;;4.20;3.40;;;;;;;3.39;83.88;100545.70;109662;1242;62171;-75
2023/03/16 01:28:53;;;;;;;4.10;2.70;;;;;;;3.36;83.90;100543.74;109485;1241;72367;-75
2023/03/16 01:31:23;;;;;;;4.70;3.10;;;;;;;3.40;83.48;100540.83;109625;1241;70772;-76
2023/03/16 01:33:52;;;;;;;6.80;3.30;;;;;;;3.37;83.77;100539.09;109561;1241;73738;-76
2023/03/16 01:36:24;;;;;;;4.50;3.40;;;;;;;3.40;83.49;100545.84;109593;1244;60782;-77
2023/03/16 01:38:58;;;;;;;6.10;3.90;;;;;;;3.26;85.15;100550.09;109540;1247;57155;-75
2023/03/16 01:41:30;;;;;;;4.50;3.10;;;;;;;3.23;85.56;100546.25;109506;1245;64582;-75
2023/03/16 01:43:59;;;;;;;5.40;3.80;;;;;;;3.28;85.10;100541.70;109500;1247;60852;-75
2023/03/16 01:46:30;;;;;;;5.50;3.40;;;;;;;3.27;85.38;100532.49;109757;1241;61472;-75
2023/03/16 01:49:12;;;;;;;4.80;3.40;;;;;;;3.25;85.26;100533.73;109501;1248;63278;-76
2023/03/16 01:51:51;;;;;;;4.70;3.70;;;;;;;3.26;85.10;100538.88;109654;1243;57209;-77
2023/03/16 01:54:35;;;;;;;6.60;3.60;;;;;;;3.26;85.08;100546.64;109542;1248;57270;-76
2023/03/16 01:57:21;;;;;;;5.20;3.70;;;;;;;3.24;85.51;100543.27;109520;1241;63024;-76
2023/03/16 02:00:20;;;;;;;5.20;3.90;;;;;;;3.28;84.89;100540.16;109804;1241;70895;-75
2023/03/16 02:03:10;;;;;;;5.90;4.20;;;;;;;3.30;84.76;100539.92;109579;1241;70924;-74
2023/03/16 02:06:18;;;;;;;5.20;3.30;;;;;;;3.22;85.25;100548.17;109596;1245;64896;-74
2023/03/16 02:08:54;;;;;;;4.40;3.10;;;;;;;3.28;84.92;100555.49;109471;1244;62121;-75
2023/03/16 02:11:24;;;;;;;5.90;3.50;;;;;;;3.27;85.09;100563.45;109562;1241;60792;-76
2023/03/16 02:14:10;;;;;;;5.60;3.10;;;;;;;3.23;85.48;100568.63;109630;1241;73965;-78
2023/03/16 02:16:40;;;;;;;5.00;3.10;;;;;;;3.15;86.14;100565.34;109445;1247;71754;-80
2023/03/16 02:19:23;;;;;;;6.00;3.40;;;;;;;3.25;85.55;100569.40;109450;1241;71059;-80
2023/03/16 02:22:05;;;;;;;5.60;3.50;;;;;;;3.28;85.13;100574.93;109471;1244;73337;-80
2023/03/16 02:24:36;;;;;;;4.10;3.00;;;;;;;3.28;85.19;100576.32;109489;1247;62056;-80
2023/03/16 02:27:25;;;;;;;4.00;2.70;;;;;;;3.21;85.42;100572.34;109508;1241;58083;-80
2023/03/16 02:30:13;;;;;;;3.00;2.20;;;;;;;3.20;85.36;100564.81;109654;1244;62940;-79
2023/03/16 02:32:55;;;;;;;5.30;3.10;;;;;;;3.23;85.28;100556.56;109523;1241;61615;-81
2023/03/16 02:35:25;;;;;;;5.00;3.00;;;;;;;3.19;85.43;100559.48;109617;1244;59953;-80
2023/03/16 02:37:54;;;;;;;4.40;2.70;;;;;;;3.22;85.28;100572.96;109536;1245;71376;-80
2023/03/16 02:40:32;;;;;;;3.40;2.40;;;;;;;3.25;84.73;100579.05;109642;1241;57623;-79
2023/03/16 02:43:20;;;;;;;3.10;2.20;;;;;;;3.24;84.73;100568.77;109362;1247;60478;-77
2023/03/16 02:46:03;;;;;;;4.10;3.10;;;;;;;3.21;84.92;100574.41;109334;1246;71498;-76
2023/03/16 02:49:04;;;;;;;3.90;2.90;;;;;;;3.17;85.04;100574.20;109370;1241;71457;-77
2023/03/16 02:51:33;;;;;;;3.90;2.20;;;;;;;3.16;85.07;100572.70;109410;1245;60188;-76
2023/03/16 02:54:02;;;;;;;3.80;2.60;;;;;;;3.21;84.77;100570.75;109436;1241;63913;-77
2023/03/16 02:56:33;;;;;;;4.30;2.80;;;;;;;3.24;84.38;100576.15;109221;1247;61286;-77
2023/03/16 02:59:02;;;;;;;5.40;3.20;;;;;;;3.15;84.88;100576.36;109393;1241;61087;-78
2023/03/16 03:01:33;;;;;;;3.80;2.60;;;;;;;3.18;84.86;100574.16;109376;1241;63447;-78
2023/03/16 03:04:04;;;;;;;3.50;2.40;;;;;;;3.18;85.07;100578.13;109388;1241;61639;-78
2023/03/16 03:06:33;;;;;;;4.70;2.20;;;;;;;3.18;84.80;100581.92;109428;1241;60022;-77
2023/03/16 03:09:04;;;;;;;3.10;2.20;;;;;;;3.20;84.83;100580.63;109290;1244;63893;-77
2023/03/16 03:11:32;;;;;;;3.90;2.20;;;;;;;3.20;85.19;100582.71;109224;1247;57228;-77
2023/03/16 03:14:02;;;;;;;3.90;2.40;;;;;;;3.27;84.42;100585.48;109433;1241;58041;-77
2023/03/16 03:16:34;;;;;;;3.60;2.60;;;;;;;3.28;84.16;100588.38;109286;1241;63088;-77
2023/03/16 03:19:03;;;;;;;4.50;2.40;;;;;;;3.24;84.75;100590.79;109469;1241;60960;-77
2023/03/16 03:21:35;;;;;;;4.60;2.30;;;;;;;3.26;84.42;100586.23;109474;1241;70652;-77
2023/03/16 03:24:04;;;;;;;3.00;2.30;;;;;;;3.22;84.85;100581.04;109389;1242;74123;-77
2023/03/16 03:26:36;;;;;;;3.20;2.30;;;;;;;3.25;84.29;100577.12;109464;1244;57191;-79
2023/03/16 03:29:07;;;;;;;3.50;2.20;;;;;;;3.27;84.03;100571.38;109478;1241;57082;-74
2023/03/16 03:31:36;;;;;;;4.00;2.50;;;;;;;3.30;83.99;100575.38;109479;1241;73539;-74
2023/03/16 03:34:05;;;;;;;4.00;2.40;;;;;;;3.21;84.84;100566.64;109484;1242;62097;-75
2023/03/16 03:36:35;;;;;;;4.40;2.40;;;;;;;3.18;84.74;100562.98;109391;1241;70360;-75
2023/03/16 03:39:06;;;;;;;3.90;2.00;;;;;;;3.22;84.62;100563.34;109478;1244;73538;-74
2023/03/16 03:41:35;;;;;;;3.20;2.00;;;;;;;3.20;84.46;100569.61;109648;1244;57721;-75
2023/03/16 03:44:04;;;;;;;3.40;1.90;;;;;;;3.24;83.95;100557.89;109459;1241;59377;-76
2023/03/16 03:46:34;;;;;;;2.80;1.70;;;;;;;3.20;84.09;100558.60;109507;1241;63832;-76
2023/03/16 03:49:04;;;;;;;2.40;1.60;;;;;;;3.23;84.13;100561.91;109548;1241;72193;-76
2023/03/16 03:51:34;;;;;;;2.40;1.90;;;;;;;3.21;84.36;100569.23;109544;1241;70046;-77
2023/03/16 03:54:08;;;;;;;3.60;2.10;;;;;;;3.22;84.21;100573.33;109567;1241;74976;-77
2023/03/16 03:56:53;;;;;;;5.50;2.10;;;;;;;3.23;84.13;100580.83;109660;1242;57740;-76
2023/03/16 03:59:22;;;;;;;1.90;1.50;;;;;;;3.25;83.94;100586.63;109668;1241;57719;-75
2023/03/16 04:02:37;;;;;;;2.90;1.90;;;;;;;3.29;83.55;100588.67;109428;1240;63057;-77
2023/03/16 04:05:08;;;;;;;3.50;2.20;;;;;;;3.29;83.20;100591.91;109618;1241;60862;-74
2023/03/16 04:07:37;;;;;;;3.10;1.80;;;;;;;3.23;83.85;100591.86;109676;1240;59367;-74
2023/03/16 04:10:08;;;;;;;3.80;2.40;;;;;;;3.28;83.26;100593.50;109633;1241;74376;-74
2023/03/16 04:12:39;;;;;;;2.50;1.90;;;;;;;3.28;83.15;100592.48;109701;1241;62581;-75
2023/03/16 04:15:11;;;;;;;3.20;2.30;;;;;;;3.28;83.32;100593.36;109674;1241;61658;-76
2023/03/16 04:17:59;;;;;;;3.00;2.10;;;;;;;3.27;83.25;100594.98;109466;1240;380919;-74
2023/03/16 04:20:28;;;;;;;3.20;2.10;;;;;;;3.27;83.52;100600.98;109458;1241;72241;-77
2023/03/16 04:22:58;;;;;;;3.90;2.70;;;;;;;3.33;82.97;100603.98;109587;1241;71489;-75
2023/03/16 04:25:26;;;;;;;4.70;2.50;;;;;;;3.33;82.83;100599.52;109766;1241;74272;-77
2023/03/16 04:27:56;;;;;;;3.60;2.50;;;;;;;3.30;83.15;100600.14;109716;1244;62869;-79
2023/03/16 04:30:27;;;;;;;5.80;2.70;;;;;;;3.34;83.05;100596.70;109726;1240;57308;-78
2023/03/16 04:33:05;;;;;;;5.50;2.10;;;;;;;3.30;83.47;100594.48;109678;1241;62965;-75
2023/03/16 04:35:34;;;;;;;4.40;2.60;;;;;;;3.35;83.50;100597.02;109817;1241;71238;-76
2023/03/16 04:38:03;;;;;;;3.80;2.50;;;;;;;3.26;83.92;100605.14;109744;1241;70790;-77
2023/03/16 04:40:39;;;;;;;4.30;2.50;;;;;;;3.28;83.76;100602.64;109705;1241;73314;-78
2023/03/16 04:43:12;;;;;;;2.70;2.00;;;;;;;3.28;84.12;100608.17;109519;1243;57635;-78
2023/03/16 04:45:42;;;;;;;3.00;2.20;;;;;;;3.27;84.17;100607.35;109738;1241;57890;-78
2023/03/16 04:48:13;;;;;;;4.20;2.10;;;;;;;3.26;84.03;100611.69;109534;1241;62953;-79
2023/03/16 04:50:44;;;;;;;5.70;2.30;;;;;;;3.28;84.05;100615.03;109622;1241;62044;-80
2023/03/16 04:53:13;;;;;;;3.90;2.30;;;;;;;3.27;84.39;100619.75;109774;1241;70484;-82
2023/03/16 04:55:45;;;;;;;3.40;2.40;;;;;;;3.26;84.45;100625.30;109755;1241;62345;-80
2023/03/16 04:58:14;;;;;;;4.10;2.50;;;;;;;3.19;85.04;100627.30;109546;1244;57099;-77
2023/03/16 05:00:44;;;;;;;3.60;2.30;;;;;;;3.21;85.62;100619.66;109560;1240;61162;-81
2023/03/16 05:03:20;;;;;;;4.80;2.80;;;;;;;3.32;85.25;100616.58;109752;1241;64026;-75
2023/03/16 05:05:49;;;;;;;4.50;2.90;;;;;;;3.32;85.19;100623.29;109621;1241;61605;-75
2023/03/16 05:08:18;;;;;;;6.40;3.40;;;;;;;3.39;85.77;100626.11;109720;1240;71126;-76
2023/03/16 05:10:49;;;;;;;4.30;2.40;;;;;;;3.39;85.14;100628.49;109653;1241;72531;-77
2023/03/16 05:13:18;;;;;;;3.80;2.90;;;;;;;3.36;84.72;100634.48;109514;1247;57075;-75
2023/03/16 05:15:47;;;;;;;4.00;2.40;;;;;;;3.32;84.82;100624.83;109718;1241;61238;-75
2023/03/16 05:18:27;;;;;;;3.10;2.00;;;;;;;3.37;84.35;100633.92;109690;1241;74139;-78
2023/03/16 05:20:55;;;;;;;3.30;2.50;;;;;;;3.31;84.13;100630.91;109763;1241;71727;-80
2023/03/16 05:23:27;;;;;;;5.10;2.60;;;;;;;3.22;84.66;100634.08;109706;1241;60720;-80
2023/03/16 05:26:00;;;;;;;3.40;2.40;;;;;;;3.27;84.60;100642.30;109750;1241;63213;-80
2023/03/16 05:28:30;;;;;;;2.70;2.10;;;;;;;3.21;85.34;100653.23;109731;1244;57633;-77
2023/03/16 05:31:08;;;;;;;3.60;2.30;;;;;;;3.27;85.52;100651.91;109809;1240;57264;-78
2023/03/16 05:33:43;;;;;;;4.70;2.90;;;;;;;3.25;85.10;100649.80;109637;1245;62948;-74
2023/03/16 05:36:16;;;;;;;8.10;6.20;;;;;;;3.22;85.13;100653.52;109597;1240;72143;-76
2023/03/16 05:38:47;;;;;;;6.20;3.70;;;;;;;3.26;85.06;100657.83;109724;1241;70894;-75
2023/03/16 05:41:24;;;;;;;3.40;2.50;;;;;;;3.23;84.95;100658.64;109639;1243;73389;-74
2023/03/16 05:44:39;;;;;;;4.00;3.10;;;;;;;3.25;84.85;100659.56;109587;1241;57617;-74
2023/03/16 05:48:00;;;;;;;4.80;2.80;;;;;;;3.21;85.20;100668.70;109534;1241;57696;-75
2023/03/16 05:50:30;;;;;;;6.20;4.00;;;;;;;3.26;84.78;100670.73;109553;1241;63608;-79
2023/03/16 05:52:59;;;;;;;8.40;3.40;;;;;;;3.23;84.81;100678.41;109584;1241;61984;-78
2023/03/16 05:55:29;;;;;;;4.60;3.00;;;;;;;3.27;84.48;100676.20;109590;1241;60034;-77
2023/03/16 05:58:00;;;;;;;5.70;3.40;;;;;;;3.22;85.19;100689.81;109448;1241;73029;-76
2023/03/16 06:00:34;;;;;;;3.60;2.40;;;;;;;3.26;84.95;100690.00;109458;1241;62659;-78
2023/03/16 06:03:08;;;;;;;6.80;3.40;;;;;;;3.27;84.58;100690.64;109693;1241;57236;-74
2023/03/16 06:05:38;;;;;;;4.00;2.90;;;;;;;3.31;84.65;100697.52;109591;1240;62949;-77
2023/03/16 06:08:08;;;;;;;5.90;3.10;;;;;;;3.32;84.74;100698.70;109439;1241;70387;-79
2023/03/16 06:10:37;;;;;;;5.50;3.60;;;;;;;3.37;84.20;100705.70;109585;1241;71091;-76
2023/03/16 06:13:06;;;;;;;5.10;3.20;;;;;;;3.38;84.20;100706.86;109662;1240;64530;-76
2023/03/16 06:15:34;;;;;;;7.00;3.80;;;;;;;3.39;84.19;100714.76;109602;1245;60289;-76
2023/03/16 06:18:04;;;;;;;4.60;3.50;;;;;;;3.29;84.74;100719.50;109816;1240;61658;-76
2023/03/16 06:20:34;;;;;;;4.10;2.60;;;;;;;3.23;84.97;100725.23;109478;1248;62728;-75
2023/03/16 06:23:04;;;;;;;4.40;2.50;;;;;;;3.28;84.42;100722.13;109758;1241;60844;-73
2023/03/16 06:25:34;;;;;;;4.20;2.70;;;;;;;3.27;84.57;100716.09;109514;1240;70504;-73
2023/03/16 06:28:03;;;;;;;4.30;2.80;;;;;;;3.27;84.55;100708.36;109620;1241;63773;-73
2023/03/16 06:30:33;;;;;;;4.90;2.80;;;;;;;3.22;84.72;100731.48;109521;1246;62177;-74
2023/03/16 06:33:02;;;;;;;4.00;2.50;;;;;;;3.25;84.79;100741.67;109508;1245;57724;-82
2023/03/16 06:35:33;;;;;;;5.20;3.00;;;;;;;3.19;85.15;100739.02;109593;1244;62489;-77
2023/03/16 06:38:16;;;;;;;;;;;;;;;3.21;84.98;100740.30;109530;1240;62462;-74
2023/03/16 06:41:07;;;;;;;7.20;4.30;;;;;;;3.17;85.32;100746.84;109582;1245;60048;-73
2023/03/16 06:43:36;;;;;;;3.80;2.60;;;;;;;3.23;84.99;100750.02;109333;1241;63681;-73
2023/03/16 06:46:05;;;;;;;3.70;2.50;;;;;;;3.22;85.29;100753.17;109543;1245;57697;-76
2023/03/16 06:48:34;;;;;;;5.80;3.20;;;;;;;3.29;84.85;100749.61;109464;1241;57211;-76
2023/03/16 06:51:06;;;;;;;4.70;3.00;;;;;;;3.23;85.66;100759.84;109398;1241;73511;-77
2023/03/16 06:53:35;;;;;;;5.70;3.10;;;;;;;3.24;85.16;100759.79;109247;1248;62054;-79
2023/03/16 06:56:04;;;;;;;6.40;3.30;;;;;;;3.20;85.31;100763.94;109444;1245;59086;-75
2023/03/16 06:58:38;;;;;;;5.60;3.50;;;;;;;3.21;85.56;100760.44;109462;1241;63855;-76
2023/03/16 07:01:07;;;;;;;6.00;3.00;;;;;;;3.31;85.00;100766.92;109341;1241;62310;-74
2023/03/16 07:03:36;;;;;;;6.70;3.30;;;;;;;3.34;84.82;100771.27;109396;1241;61132;-73
2023/03/16 07:06:14;;;;;;;5.70;3.10;;;;;;;3.31;84.86;100780.52;109440;1241;73889;-74
2023/03/16 07:08:44;;;;;;;6.00;3.60;;;;;;;3.34;84.74;100786.94;109633;1241;64012;-77
2023/03/16 07:11:16;;;;;;;5.80;3.50;;;;;;;3.37;84.62;100788.55;109533;1241;62671;-74
2023/03/16 07:13:52;;;;;;;7.10;4.10;;;;;;;3.40;84.28;100786.31;109510;1241;73198;-78
2023/03/16 07:16:22;;;;;;;5.30;3.50;;;;;;;3.42;84.23;100789.34;109349;1248;57283;-77
2023/03/16 07:18:52;;;;;;;4.30;2.90;;;;;;;3.45;83.77;100787.50;109438;1241;60280;-80
2023/03/16 07:21:21;;;;;;;5.10;3.20;;;;;;;3.47;83.80;100796.37;109500;1241;62408;-80
2023/03/16 07:23:51;;;;;;;4.60;3.20;;;;;;;3.45;84.16;100798.56;109553;1244;70075;-82
2023/03/16 07:26:25;;;;;;;5.00;3.20;;;;;;;3.48;83.97;100797.70;109502;1241;71627;-82
2023/03/16 07:28:56;;;;;;;6.70;3.30;;;;;;;3.51;83.57;100795.34;109475;1247;63971;-84
2023/03/16 07:31:27;;;;;;;5.20;3.80;;;;;;;3.53;83.23;100791.48;109475;1241;62067;-85
2023/03/16 07:33:59;;;;;;;5.50;3.50;;;;;;;3.53;83.57;100794.92;109457;1240;61715;-85
2023/03/16 07:36:34;;;;;;;7.40;3.50;;;;;;;3.47;83.49;100800.66;109586;1245;63606;-85
2023/03/16 07:39:05;;;;;;;4.50;3.20;;;;;;;3.54;83.25;100802.13;109486;1247;60920;-86
2023/03/16 07:41:34;;;;;;;6.60;4.20;;;;;;;3.62;82.87;100804.37;109559;1240;70485;-86
2023/03/16 07:44:17;;;;;;;4.60;3.20;;;;;;;3.62;82.93;100811.41;109686;1240;74269;-83
2023/03/16 07:46:51;;;;;;;3.40;2.60;;;;;;;3.67;82.63;100810.51;109665;1244;57617;-84
2023/03/16 07:49:26;;;;;;;5.70;2.80;;;;;;;3.69;82.29;100809.59;109319;1244;61012;-85
2023/03/16 07:51:56;;;;;;;3.90;2.60;;;;;;;3.65;82.29;100815.77;109518;1241;74798;-85
2023/03/16 07:54:29;;;;;;;3.40;2.60;;;;;;;3.62;82.89;100817.80;109505;1247;61468;-86
2023/03/16 07:56:58;;;;;;;4.20;2.10;;;;;;;3.69;82.40;100824.39;109692;1244;60475;-85
2023/03/16 07:59:33;;;;;;;5.60;3.70;;;;;;;3.71;82.31;100826.05;109504;1241;63106;-86
2023/03/16 08:02:03;;;;;;;3.50;2.40;;;;;;;3.71;82.25;100828.27;109514;1241;61275;-86
2023/03/16 08:04:33;;;;;;;3.20;2.50;;;;;;;3.73;81.99;100830.41;109484;1248;57296;-83
2023/03/16 08:07:03;;;;;;;3.40;2.20;;;;;;;3.74;82.00;100835.52;109639;1241;73060;-87
2023/03/16 08:09:45;;;;;;;4.30;2.70;;;;;;;3.78;81.62;100837.63;109411;1250;61743;-86
2023/03/16 08:12:17;;;;;;;4.40;2.80;;;;;;;3.73;81.70;100836.08;109593;1241;59987;-87
2023/03/16 08:14:46;;;;;;;5.60;2.90;;;;;;;3.77;81.67;100839.73;109343;1241;73883;-86
2023/03/16 08:17:26;;;;;;;4.90;2.90;;;;;;;3.76;81.89;100836.48;109401;1244;62185;-87
2023/03/16 08:19:57;;;;;;;4.00;2.30;;;;;;;3.76;81.91;100840.42;109498;1241;60768;-86
2023/03/16 08:22:27;;;;;;;4.30;2.40;;;;;;;3.79;81.88;100837.89;109435;1248;62789;-85
2023/03/16 08:24:57;;;;;;;3.00;1.90;;;;;;;3.81;81.94;100845.40;109742;1241;72181;-86
2023/03/16 08:27:28;;;;;;;3.50;2.20;;;;;;;3.77;82.13;100844.73;109617;1245;60297;-88
2023/03/16 08:30:03;;;;;;;3.80;2.60;;;;;;;3.89;81.49;100845.95;109737;1241;74116;-85
2023/03/16 08:32:33;;;;;;;5.00;2.70;;;;;;;3.88;81.33;100849.42;109397;1248;57229;-89
2023/03/16 08:35:03;;;;;;;3.90;2.40;;;;;;;3.89;81.01;100854.38;109872;1241;59784;-86
2023/03/16 08:37:32;;;;;;;3.90;2.50;;;;;;;3.91;80.62;100856.35;109737;1245;62483;-86
2023/03/16 08:40:04;;;;;;;5.50;2.50;;;;;;;3.92;80.14;100851.48;109522;1245;61420;-87
2023/03/16 08:42:34;;;;;;;4.40;2.50;;;;;;;3.91;80.17;100854.63;109681;1241;70440;-86
2023/03/16 08:45:08;;;;;;;3.40;2.50;;;;;;;3.87;80.66;100855.31;109677;1245;63692;-86
2023/03/16 08:47:41;;;;;;;5.80;2.90;;;;;;;3.91;80.59;100857.41;109712;1245;57734;-85
2023/03/16 08:50:14;;;;;;;5.10;2.50;;;;;;;3.94;80.63;100858.98;109775;1241;60219;-87
2023/03/16 08:52:47;;;;;;;3.40;2.00;;;;;;;4.05;80.09;100867.64;109446;1249;62903;-87
2023/03/16 08:55:23;;;;;;;4.10;2.00;;;;;;;4.14;79.44;100865.73;109614;1248;61628;-88
2023/03/16 08:57:56;;;;;;;3.80;2.10;;;;;;;4.05;79.16;100865.07;109629;1248;59852;-85
2023/03/16 09:00:28;;;;;;;3.10;2.00;;;;;;;4.07;78.63;100866.70;109583;1247;63648;-84
2023/03/16 09:03:01;;;;;;;3.00;1.80;;;;;;;4.07;78.48;100868.95;109619;1244;57161;-88
2023/03/16 09:05:33;;;;;;;3.00;1.90;;;;;;;4.15;77.85;100861.88;109703;1245;57268;-88
2023/03/16 09:08:05;;;;;;;3.20;1.60;;;;;;;4.00;78.16;100853.38;109476;1248;73602;-85
2023/03/16 09:10:38;;;;;;;3.60;1.90;;;;;;;4.17;77.73;100867.85;109520;1241;72477;-86
2023/03/16 09:13:08;;;;;;;3.00;1.40;;;;;;;4.15;77.92;100867.39;109593;1248;60664;-85
2023/03/16 09:15:39;;;;;;;6.40;3.10;;;;;;;4.14;77.34;100867.09;109512;1241;72058;-85
2023/03/16 09:18:10;;;;;;;5.50;2.20;;;;;;;4.10;77.30;100874.19;109702;1245;57622;-86
2023/03/16 09:20:39;;;;;;;7.40;2.80;;;;;;;4.16;77.05;100870.98;109947;1241;57693;-85
2023/03/16 09:23:08;;;;;;;3.90;2.70;;;;;;;4.25;76.68;100874.03;109861;1242;62956;-86
2023/03/16 09:25:37;;;;;;;4.20;2.60;;;;;;;4.27;76.52;100876.34;109716;1241;61656;-89
2023/03/16 09:28:07;;;;;;;3.30;2.40;;;;;;;4.27;76.55;100882.92;109600;1241;69732;-85
2023/03/16 09:30:37;;;;;;;4.10;2.00;;;;;;;4.27;76.28;100882.90;109737;1241;73393;-87
2023/03/16 09:33:07;;;;;;;4.00;2.30;;;;;;;4.29;76.27;100883.70;109816;1241;61436;-85
2023/03/16 09:35:56;;;;;;;5.70;2.40;;;;;;;4.24;76.47;100884.42;109629;1247;57790;-88
2023/03/16 09:38:25;;;;;;;2.80;1.60;;;;;;;4.22;76.40;100891.40;109570;1248;62968;-86
2023/03/16 09:41:05;;;;;;;3.20;2.00;;;;;;;4.25;76.49;100893.52;109752;1241;72353;-85
2023/03/16 09:43:34;;;;;;;5.10;3.00;;;;;;;4.32;76.23;100895.15;109614;1240;59888;-86
2023/03/16 09:46:08;;;;;;;3.70;2.50;;;;;;;4.32;76.50;100893.59;109752;1242;63218;-85
2023/03/16 09:48:39;;;;;;;4.90;2.00;;;;;;;4.37;75.75;100901.46;109619;1241;59724;-87
2023/03/16 09:51:36;;;;;;;3.40;1.90;;;;;;;4.37;75.70;100908.67;109653;1241;60502;-86
2023/03/16 09:54:55;;;;;;;3.20;2.40;;;;;;;4.30;75.81;100909.88;109546;1241;72976;-88
2023/03/16 09:57:43;;;;;;;2.80;1.80;;;;;;;4.39;75.52;100912.21;109813;1241;70967;-87
2023/03/16 10:00:30;;;;;;;3.00;2.10;;;;;;;4.38;75.40;100908.45;109720;1241;59671;-88
2023/03/16 10:03:15;;;;;;;5.60;2.00;;;;;;;4.43;75.56;100905.69;109692;1241;62455;-86
2023/03/16 10:05:54;;;;;;;2.60;1.80;;;;;;;4.41;76.17;100916.25;109799;1244;61987;-88
2023/03/16 10:08:31;;;;;;;5.80;1.90;;;;;;;4.41;76.75;100916.25;109671;1241;57634;-88
2023/03/16 10:11:30;;;;;;;3.30;1.90;;;;;;;4.38;77.31;100921.04;109708;1242;63919;-86
2023/03/16 10:14:16;;;;;;;4.60;2.20;;;;;;;4.37;77.67;100919.55;110200;1241;71348;-87
2023/03/16 10:17:23;;;;;;;3.30;2.20;;;;;;;4.39;77.88;100921.55;109886;1245;60470;-85
2023/03/16 10:20:01;;;;;;;3.70;2.00;;;;;;;4.38;78.13;100926.73;109778;1244;62616;-87
2023/03/16 10:22:34;;;;;;;3.40;1.80;;;;;;;4.38;77.95;100930.04;109760;1248;59603;-83
2023/03/16 10:25:21;;;;;;;2.90;1.60;;;;;;;4.41;77.35;100933.67;109756;1244;57668;-87
2023/03/16 10:27:51;;;;;;;1.70;1.20;;;;;;;4.45;77.08;100937.81;109633;1244;62853;-87
2023/03/16 10:30:33;;;;;;;2.50;1.40;;;;;;;4.41;76.87;100935.75;109462;1247;72192;-88
2023/03/16 10:33:18;;;;;;;2.90;1.70;;;;;;;4.40;76.84;100940.09;109364;1244;70862;-88
2023/03/16 10:36:04;;;;;;;3.00;1.70;;;;;;;4.43;76.64;100939.98;109506;1245;64234;-85
2023/03/16 10:38:39;;;;;;;2.40;1.60;;;;;;;4.40;76.74;100937.34;109450;1246;57480;-89
2023/03/16 10:41:32;;;;;;;2.50;1.60;;;;;;;4.45;76.66;100940.39;109538;1244;57683;-87
2023/03/16 10:44:07;;;;;;;3.30;1.80;;;;;;;4.45;76.84;100940.75;109524;1245;62742;-87
2023/03/16 10:46:47;;;;;;;2.60;1.60;;;;;;;4.52;76.56;100943.23;109411;1244;69507;-87
2023/03/16 10:49:20;;;;;;;2.20;1.50;;;;;;;4.56;76.11;100942.54;109515;1244;60225;-85
2023/03/16 10:51:50;;;;;;;4.50;2.40;;;;;;;4.58;76.09;100938.98;109602;1244;62455;-86
2023/03/16 10:54:38;;;;;;;2.60;2.00;;;;;;;4.63;76.20;100933.43;109505;1248;62841;-85
2023/03/16 10:57:40;;;;;;;2.50;1.50;;;;;;;4.67;76.39;100928.79;109516;1243;59765;-89
2023/03/16 11:00:25;;;;;;;3.80;1.70;;;;;;;4.75;76.68;100933.07;109363;1246;74052;-88
2023/03/16 11:02:57;;;;;;;5.10;2.10;;;;;;;4.82;75.94;100926.05;109245;1244;61840;-90
2023/03/16 11:05:33;;;;;;;3.00;1.90;;;;;;;4.84;75.17;100928.89;109349;1244;69474;-88
2023/03/16 11:08:12;;;;;;;3.10;1.90;;;;;;;4.86;75.07;100927.91;109279;1244;63711;-89
2023/03/16 11:10:45;;;;;;;5.10;2.80;;;;;;;4.84;75.24;100927.14;109382;1245;58782;-89
2023/03/16 11:13:32;;;;;;;3.50;2.40;;;;;;;4.83;74.81;100926.66;109379;1244;57174;-85
2023/03/16 11:16:45;;;;;;;4.80;2.10;;;;;;;4.96;74.48;100923.67;109324;1244;62915;-87
2023/03/16 11:19:41;;;;;;;3.10;1.90;;;;;;;4.80;75.07;100920.61;109369;1244;72861;-87
2023/03/16 11:22:23;;;;;;;3.30;2.10;;;;;;;4.96;74.35;100916.77;109440;1244;59587;-87
2023/03/16 11:25:08;;;;;;;3.40;1.80;;;;;;;4.95;74.45;100917.35;109489;1246;72172;-88
2023/03/16 11:27:45;;;;;;;3.30;1.80;;;;;;;4.95;74.84;100921.95;109560;1245;61086;-88
2023/03/16 11:30:23;;;;;;;3.50;2.20;;;;;;;5.02;74.45;100922.36;109378;1244;57723;-88
2023/03/16 11:32:52;;;;;;;2.90;1.80;;;;;;;5.05;73.62;100923.44;109374;1245;62609;-86
2023/03/16 11:36:05;;;;;;;3.50;2.00;;;;;;;5.09;73.56;100925.13;109386;1245;71413;-89
2023/03/16 11:38:57;;;;;;;3.30;1.70;;;;;;;5.19;73.30;100923.65;108850;1251;70074;-86
2023/03/16 11:41:47;;;;;;;4.50;2.30;;;;;;;5.26;72.81;100931.58;108907;1251;73867;-86
2023/03/16 11:44:54;;;;;;;6.00;2.20;;;;;;;5.27;73.00;100928.98;109067;1249;61141;-86
2023/03/16 11:47:45;;;;;;;4.80;2.10;;;;;;;5.25;72.81;100931.80;109365;1244;60833;-88
2023/03/16 11:50:21;;;;;;;3.50;1.80;;;;;;;5.34;72.19;100929.66;109384;1247;73465;-87
2023/03/16 11:53:28;;;;;;;3.20;2.20;;;;;;;5.36;72.01;100933.92;109356;1244;70853;-87
2023/03/16 11:56:17;;;;;;;3.00;1.60;;;;;;;5.25;71.71;100934.58;109013;1245;70678;-86
2023/03/16 11:59:26;;;;;;;9.40;2.00;;;;;;;5.22;72.08;100937.66;109240;1244;63783;-88
2023/03/16 12:02:33;;;;;;;4.20;2.60;;;;;;;5.27;73.03;100943.98;109253;1245;57600;-87
2023/03/16 12:05:55;;;;;;;3.10;2.10;;;;;;;5.14;74.43;100940.94;109310;1244;57983;-86